La Estrella, Argentina
Current Conditions -  °F | °C
As of 12:00 PM on Friday 24 Oct 2014 (Local Time) from SASJ Reporting Station
Few Clouds Few Clouds  
Wind Chill: 81°   Ceiling: Unl
Heat Index: 81°   Visibility: 6mi
Dew Point: 61°   Wind: 3mph
Humidity: 51%   Direction: 160°SSE
Pressure: 30.06"   Gusts: NA
Location:  23.82°S, 64.08°W
Report Text: SASJ 241500Z 16003KT 100V260 9999FEW035TCU 27/16 Q1018
Loading
Personal Weather Stations






























Interactive Weather Map New forecast layout! Learn more

10-Day Weather Forecast

Advertisements
Track Severe Weather on mobile